sensor_id;sensor_type;location;lat;lon;timestamp;temperature;humidity
27544;DHT22;17996;51.056;3.656;2022-11-20T00:00:48;6.80;99.90
27544;DHT22;17996;51.056;3.656;2022-11-20T00:03:13;7.00;99.90
27544;DHT22;17996;51.056;3.656;2022-11-20T00:05:39;7.00;99.90
27544;DHT22;17996;51.056;3.656;2022-11-20T00:08:05;7.10;99.90
27544;DHT22;17996;51.056;3.656;2022-11-20T00:10:31;7.00;99.90
27544;DHT22;17996;51.056;3.656;2022-11-20T00:12:58;6.80;99.90
27544;DHT22;17996;51.056;3.656;2022-11-20T00:15:24;7.00;99.90
27544;DHT22;17996;51.056;3.656;2022-11-20T00:17:49;7.00;99.90
27544;DHT22;17996;51.056;3.656;2022-11-20T00:20:15;7.00;99.90
27544;DHT22;17996;51.056;3.656;2022-11-20T00:22:41;6.90;99.90
27544;DHT22;17996;51.056;3.656;2022-11-20T00:25:07;6.80;99.90
27544;DHT22;17996;51.056;3.656;2022-11-20T00:27:32;6.80;99.90
27544;DHT22;17996;51.056;3.656;2022-11-20T00:29:58;6.80;99.90
27544;DHT22;17996;51.056;3.656;2022-11-20T00:32:24;7.00;99.90
27544;DHT22;17996;51.056;3.656;2022-11-20T00:34:49;6.80;99.90
27544;DHT22;17996;51.056;3.656;2022-11-20T00:37:15;6.80;99.90
27544;DHT22;17996;51.056;3.656;2022-11-20T00:39:40;7.00;99.90
27544;DHT22;17996;51.056;3.656;2022-11-20T00:42:06;7.00;99.90
27544;DHT22;17996;51.056;3.656;2022-11-20T00:44:32;6.80;99.90
27544;DHT22;17996;51.056;3.656;2022-11-20T00:46:57;6.80;99.90
27544;DHT22;17996;51.056;3.656;2022-11-20T00:49:23;6.70;99.90
27544;DHT22;17996;51.056;3.656;2022-11-20T00:51:49;6.70;99.90
27544;DHT22;17996;51.056;3.656;2022-11-20T00:54:14;6.90;99.90
27544;DHT22;17996;51.056;3.656;2022-11-20T00:56:40;6.70;99.90
27544;DHT22;17996;51.056;3.656;2022-11-20T00:59:06;7.00;99.90
27544;DHT22;17996;51.056;3.656;2022-11-20T01:01:31;7.00;99.90
27544;DHT22;17996;51.056;3.656;2022-11-20T01:03:59;6.80;99.90
27544;DHT22;17996;51.056;3.656;2022-11-20T01:06:29;6.80;99.90
27544;DHT22;17996;51.056;3.656;2022-11-20T01:08:57;6.80;99.90
27544;DHT22;17996;51.056;3.656;2022-11-20T01:11:26;6.80;99.90
27544;DHT22;17996;51.056;3.656;2022-11-20T01:13:52;6.90;99.90
27544;DHT22;17996;51.056;3.656;2022-11-20T01:16:23;6.90;99.90
27544;DHT22;17996;51.056;3.656;2022-11-20T01:18:51;6.80;99.90
27544;DHT22;17996;51.056;3.656;2022-11-20T01:21:21;6.70;99.90
27544;DHT22;17996;51.056;3.656;2022-11-20T01:23:48;7.00;99.90
27544;DHT22;17996;51.056;3.656;2022-11-20T01:26:16;6.90;99.90
27544;DHT22;17996;51.056;3.656;2022-11-20T01:28:42;7.00;99.90
27544;DHT22;17996;51.056;3.656;2022-11-20T01:31:20;6.90;99.90
27544;DHT22;17996;51.056;3.656;2022-11-20T01:33:47;6.90;99.90
27544;DHT22;17996;51.056;3.656;2022-11-20T01:36:14;6.90;99.90
27544;DHT22;17996;51.056;3.656;2022-11-20T01:38:40;6.90;99.90
27544;DHT22;17996;51.056;3.656;2022-11-20T01:41:07;7.10;99.90
27544;DHT22;17996;51.056;3.656;2022-11-20T01:43:34;6.90;99.90
27544;DHT22;17996;51.056;3.656;2022-11-20T01:51:06;6.80;99.90
27544;DHT22;17996;51.056;3.656;2022-11-20T01:53:36;6.90;99.90
27544;DHT22;17996;51.056;3.656;2022-11-20T01:56:04;6.90;99.90
27544;DHT22;17996;51.056;3.656;2022-11-20T01:58:34;6.90;99.90
27544;DHT22;17996;51.056;3.656;2022-11-20T02:01:01;7.00;99.90
27544;DHT22;17996;51.056;3.656;2022-11-20T02:03:28;6.90;99.90
27544;DHT22;17996;51.056;3.656;2022-11-20T02:08:32;7.00;99.90
27544;DHT22;17996;51.056;3.656;2022-11-20T02:10:58;7.10;99.90
27544;DHT22;17996;51.056;3.656;2022-11-20T02:13:24;7.00;99.90
27544;DHT22;17996;51.056;3.656;2022-11-20T02:16:17;7.00;99.90
27544;DHT22;17996;51.056;3.656;2022-11-20T02:18:46;7.00;99.90
27544;DHT22;17996;51.056;3.656;2022-11-20T02:21:49;7.00;99.90
27544;DHT22;17996;51.056;3.656;2022-11-20T02:24:18;7.00;99.90
27544;DHT22;17996;51.056;3.656;2022-11-20T02:26:50;7.20;99.90
27544;DHT22;17996;51.056;3.656;2022-11-20T02:29:44;7.00;99.90
27544;DHT22;17996;51.056;3.656;2022-11-20T02:32:29;7.10;99.90
27544;DHT22;17996;51.056;3.656;2022-11-20T02:34:55;7.10;99.90
27544;DHT22;17996;51.056;3.656;2022-11-20T02:37:23;7.00;99.90
27544;DHT22;17996;51.056;3.656;2022-11-20T02:39:51;7.30;99.90
27544;DHT22;17996;51.056;3.656;2022-11-20T02:42:19;7.10;99.90
27544;DHT22;17996;51.056;3.656;2022-11-20T02:44:45;7.30;99.90
27544;DHT22;17996;51.056;3.656;2022-11-20T02:47:10;7.10;99.90
27544;DHT22;17996;51.056;3.656;2022-11-20T02:49:36;7.10;99.90
27544;DHT22;17996;51.056;3.656;2022-11-20T02:52:02;7.10;99.90
27544;DHT22;17996;51.056;3.656;2022-11-20T02:54:27;7.10;99.90
27544;DHT22;17996;51.056;3.656;2022-11-20T02:56:53;7.20;99.90
27544;DHT22;17996;51.056;3.656;2022-11-20T02:59:19;7.10;99.90
27544;DHT22;17996;51.056;3.656;2022-11-20T03:01:44;7.10;99.90
27544;DHT22;17996;51.056;3.656;2022-11-20T03:04:11;7.10;99.90
27544;DHT22;17996;51.056;3.656;2022-11-20T03:06:37;7.30;99.90
27544;DHT22;17996;51.056;3.656;2022-11-20T03:09:02;7.10;99.90
27544;DHT22;17996;51.056;3.656;2022-11-20T03:11:28;7.10;99.90
27544;DHT22;17996;51.056;3.656;2022-11-20T03:13:54;7.10;99.90
27544;DHT22;17996;51.056;3.656;2022-11-20T03:16:21;7.10;99.90
27544;DHT22;17996;51.056;3.656;2022-11-20T03:18:47;7.10;99.90
27544;DHT22;17996;51.056;3.656;2022-11-20T03:21:19;7.30;99.90
27544;DHT22;17996;51.056;3.656;2022-11-20T03:23:45;7.10;99.90
27544;DHT22;17996;51.056;3.656;2022-11-20T03:26:22;7.10;99.90
27544;DHT22;17996;51.056;3.656;2022-11-20T03:28:50;7.20;99.90
27544;DHT22;17996;51.056;3.656;2022-11-20T03:31:18;7.30;99.90
27544;DHT22;17996;51.056;3.656;2022-11-20T03:33:44;7.10;99.90
27544;DHT22;17996;51.056;3.656;2022-11-20T03:36:12;7.20;99.90
27544;DHT22;17996;51.056;3.656;2022-11-20T03:38:39;7.40;99.90
27544;DHT22;17996;51.056;3.656;2022-11-20T03:41:12;7.20;99.90
27544;DHT22;17996;51.056;3.656;2022-11-20T03:43:39;7.10;99.90
27544;DHT22;17996;51.056;3.656;2022-11-20T03:46:06;7.20;99.90
27544;DHT22;17996;51.056;3.656;2022-11-20T03:48:32;7.10;99.90
27544;DHT22;17996;51.056;3.656;2022-11-20T03:51:11;7.40;99.90
27544;DHT22;17996;51.056;3.656;2022-11-20T03:53:38;7.20;99.90
27544;DHT22;17996;51.056;3.656;2022-11-20T03:56:04;7.20;99.90
27544;DHT22;17996;51.056;3.656;2022-11-20T03:58:30;7.20;99.90
27544;DHT22;17996;51.056;3.656;2022-11-20T04:00:56;7.10;99.90
27544;DHT22;17996;51.056;3.656;2022-11-20T04:03:22;7.10;99.90
27544;DHT22;17996;51.056;3.656;2022-11-20T04:05:47;7.10;99.90
27544;DHT22;17996;51.056;3.656;2022-11-20T04:08:13;7.10;99.90
27544;DHT22;17996;51.056;3.656;2022-11-20T04:10:38;7.10;99.90
27544;DHT22;17996;51.056;3.656;2022-11-20T04:13:05;7.10;99.90
27544;DHT22;17996;51.056;3.656;2022-11-20T04:15:31;7.20;99.90
27544;DHT22;17996;51.056;3.656;2022-11-20T04:17:57;7.10;99.90
27544;DHT22;17996;51.056;3.656;2022-11-20T04:20:22;7.20;99.90
27544;DHT22;17996;51.056;3.656;2022-11-20T04:22:48;7.30;99.90
27544;DHT22;17996;51.056;3.656;2022-11-20T04:25:14;7.20;99.90
27544;DHT22;17996;51.056;3.656;2022-11-20T04:27:39;7.20;99.90
27544;DHT22;17996;51.056;3.656;2022-11-20T04:30:06;7.20;99.90
27544;DHT22;17996;51.056;3.656;2022-11-20T04:32:32;7.20;99.90
27544;DHT22;17996;51.056;3.656;2022-11-20T04:34:57;7.40;99.90
27544;DHT22;17996;51.056;3.656;2022-11-20T04:37:23;7.20;99.90
27544;DHT22;17996;51.056;3.656;2022-11-20T04:39:49;7.30;99.90
27544;DHT22;17996;51.056;3.656;2022-11-20T04:42:14;7.10;99.90
27544;DHT22;17996;51.056;3.656;2022-11-20T04:44:55;7.00;99.90
27544;DHT22;17996;51.056;3.656;2022-11-20T04:47:21;7.00;99.90
27544;DHT22;17996;51.056;3.656;2022-11-20T04:49:47;7.20;99.90
27544;DHT22;17996;51.056;3.656;2022-11-20T04:52:12;7.00;99.90
27544;DHT22;17996;51.056;3.656;2022-11-20T04:54:38;7.20;99.90
27544;DHT22;17996;51.056;3.656;2022-11-20T04:57:05;7.10;99.90
27544;DHT22;17996;51.056;3.656;2022-11-20T04:59:31;7.20;99.90
27544;DHT22;17996;51.056;3.656;2022-11-20T05:01:57;7.20;99.90
27544;DHT22;17996;51.056;3.656;2022-11-20T05:04:22;7.00;99.90
27544;DHT22;17996;51.056;3.656;2022-11-20T05:06:50;7.00;99.90
27544;DHT22;17996;51.056;3.656;2022-11-20T05:09:16;7.10;99.90
27544;DHT22;17996;51.056;3.656;2022-11-20T05:11:41;7.20;99.90
27544;DHT22;17996;51.056;3.656;2022-11-20T05:14:07;7.10;99.90
27544;DHT22;17996;51.056;3.656;2022-11-20T05:16:34;7.00;99.90
27544;DHT22;17996;51.056;3.656;2022-11-20T05:19:01;7.20;99.90
27544;DHT22;17996;51.056;3.656;2022-11-20T05:21:26;7.00;99.90
27544;DHT22;17996;51.056;3.656;2022-11-20T05:23:53;7.00;99.90
27544;DHT22;17996;51.056;3.656;2022-11-20T05:26:21;6.90;99.90
27544;DHT22;17996;51.056;3.656;2022-11-20T05:28:48;7.00;99.90
27544;DHT22;17996;51.056;3.656;2022-11-20T05:31:16;7.00;99.90
27544;DHT22;17996;51.056;3.656;2022-11-20T05:33:44;7.00;99.90
27544;DHT22;17996;51.056;3.656;2022-11-20T05:36:12;7.20;99.90
27544;DHT22;17996;51.056;3.656;2022-11-20T05:38:38;7.10;99.90
27544;DHT22;17996;51.056;3.656;2022-11-20T05:41:12;7.20;99.90
27544;DHT22;17996;51.056;3.656;2022-11-20T05:43:39;7.10;99.90
27544;DHT22;17996;51.056;3.656;2022-11-20T05:46:06;7.30;99.90
27544;DHT22;17996;51.056;3.656;2022-11-20T05:48:33;7.30;99.90
27544;DHT22;17996;51.056;3.656;2022-11-20T05:51:00;7.10;99.90
27544;DHT22;17996;51.056;3.656;2022-11-20T05:53:25;7.10;99.90
27544;DHT22;17996;51.056;3.656;2022-11-20T05:56:15;7.20;99.90
27544;DHT22;17996;51.056;3.656;2022-11-20T05:58:41;7.20;99.90
27544;DHT22;17996;51.056;3.656;2022-11-20T06:03:34;7.20;99.90
27544;DHT22;17996;51.056;3.656;2022-11-20T06:06:00;7.40;99.90
27544;DHT22;17996;51.056;3.656;2022-11-20T06:08:26;7.40;99.90
27544;DHT22;17996;51.056;3.656;2022-11-20T06:10:51;7.40;99.90
27544;DHT22;17996;51.056;3.656;2022-11-20T06:13:17;7.50;99.90
27544;DHT22;17996;51.056;3.656;2022-11-20T06:15:52;7.20;99.90
27544;DHT22;17996;51.056;3.656;2022-11-20T06:18:17;7.30;99.90
27544;DHT22;17996;51.056;3.656;2022-11-20T06:20:43;7.40;99.90
27544;DHT22;17996;51.056;3.656;2022-11-20T06:23:09;7.30;99.90
27544;DHT22;17996;51.056;3.656;2022-11-20T06:25:42;7.20;99.90
27544;DHT22;17996;51.056;3.656;2022-11-20T06:28:08;7.30;99.90
27544;DHT22;17996;51.056;3.656;2022-11-20T06:30:34;7.40;99.90
27544;DHT22;17996;51.056;3.656;2022-11-20T06:33:00;7.40;99.90
27544;DHT22;17996;51.056;3.656;2022-11-20T06:35:26;7.40;99.90
27544;DHT22;17996;51.056;3.656;2022-11-20T06:37:51;7.30;99.90
27544;DHT22;17996;51.056;3.656;2022-11-20T06:40:17;7.40;99.90
27544;DHT22;17996;51.056;3.656;2022-11-20T06:42:43;7.30;99.90
27544;DHT22;17996;51.056;3.656;2022-11-20T06:45:09;7.40;99.90
27544;DHT22;17996;51.056;3.656;2022-11-20T06:47:34;7.30;99.90
27544;DHT22;17996;51.056;3.656;2022-11-20T06:50:00;7.30;99.90
27544;DHT22;17996;51.056;3.656;2022-11-20T06:52:27;7.30;99.90
27544;DHT22;17996;51.056;3.656;2022-11-20T06:54:53;7.50;99.90
27544;DHT22;17996;51.056;3.656;2022-11-20T06:57:18;7.60;99.90
27544;DHT22;17996;51.056;3.656;2022-11-20T06:59:44;7.40;99.90
27544;DHT22;17996;51.056;3.656;2022-11-20T07:02:11;7.40;99.90
27544;DHT22;17996;51.056;3.656;2022-11-20T07:04:38;7.40;99.90
27544;DHT22;17996;51.056;3.656;2022-11-20T07:07:03;7.50;99.90
27544;DHT22;17996;51.056;3.656;2022-11-20T07:09:29;7.40;99.90
27544;DHT22;17996;51.056;3.656;2022-11-20T07:11:55;7.40;99.90
27544;DHT22;17996;51.056;3.656;2022-11-20T07:14:20;7.50;99.90
27544;DHT22;17996;51.056;3.656;2022-11-20T07:16:46;7.60;99.90
27544;DHT22;17996;51.056;3.656;2022-11-20T07:19:11;7.60;99.90
27544;DHT22;17996;51.056;3.656;2022-11-20T07:21:37;7.40;99.90
27544;DHT22;17996;51.056;3.656;2022-11-20T07:24:03;7.30;99.90
27544;DHT22;17996;51.056;3.656;2022-11-20T07:26:29;7.40;99.90
27544;DHT22;17996;51.056;3.656;2022-11-20T07:28:54;7.40;99.90
27544;DHT22;17996;51.056;3.656;2022-11-20T07:31:20;7.40;99.90
27544;DHT22;17996;51.056;3.656;2022-11-20T07:33:46;7.40;99.90
27544;DHT22;17996;51.056;3.656;2022-11-20T07:36:12;7.40;99.90
27544;DHT22;17996;51.056;3.656;2022-11-20T07:38:37;7.40;99.90
27544;DHT22;17996;51.056;3.656;2022-11-20T07:41:03;7.40;99.90
27544;DHT22;17996;51.056;3.656;2022-11-20T07:43:30;7.50;99.90
27544;DHT22;17996;51.056;3.656;2022-11-20T07:45:56;7.50;99.90
27544;DHT22;17996;51.056;3.656;2022-11-20T07:48:23;7.50;99.90
27544;DHT22;17996;51.056;3.656;2022-11-20T07:50:48;7.50;99.90
27544;DHT22;17996;51.056;3.656;2022-11-20T07:53:14;7.50;99.90
27544;DHT22;17996;51.056;3.656;2022-11-20T07:55:46;7.50;99.90
27544;DHT22;17996;51.056;3.656;2022-11-20T07:58:11;7.70;99.90
27544;DHT22;17996;51.056;3.656;2022-11-20T08:00:37;7.80;99.90
27544;DHT22;17996;51.056;3.656;2022-11-20T08:03:04;7.60;99.90
27544;DHT22;17996;51.056;3.656;2022-11-20T08:05:30;7.60;99.90
27544;DHT22;17996;51.056;3.656;2022-11-20T08:07:55;7.60;99.90
27544;DHT22;17996;51.056;3.656;2022-11-20T08:10:21;7.70;99.90
27544;DHT22;17996;51.056;3.656;2022-11-20T08:12:49;7.70;99.90
27544;DHT22;17996;51.056;3.656;2022-11-20T08:15:35;7.90;99.90
27544;DHT22;17996;51.056;3.656;2022-11-20T08:18:05;7.80;99.90
27544;DHT22;17996;51.056;3.656;2022-11-20T08:20:31;7.80;99.90
27544;DHT22;17996;51.056;3.656;2022-11-20T08:23:02;8.00;99.90
27544;DHT22;17996;51.056;3.656;2022-11-20T08:25:29;7.80;99.90
27544;DHT22;17996;51.056;3.656;2022-11-20T08:27:57;7.90;99.90
27544;DHT22;17996;51.056;3.656;2022-11-20T08:30:23;7.90;99.90
27544;DHT22;17996;51.056;3.656;2022-11-20T08:32:49;8.10;99.90
27544;DHT22;17996;51.056;3.656;2022-11-20T08:35:15;7.80;99.90
27544;DHT22;17996;51.056;3.656;2022-11-20T08:37:40;7.80;99.90
27544;DHT22;17996;51.056;3.656;2022-11-20T08:40:09;7.90;99.90
27544;DHT22;17996;51.056;3.656;2022-11-20T08:42:35;7.90;99.90
27544;DHT22;17996;51.056;3.656;2022-11-20T08:45:01;7.80;99.90
27544;DHT22;17996;51.056;3.656;2022-11-20T08:47:26;7.80;99.90
27544;DHT22;17996;51.056;3.656;2022-11-20T08:49:52;7.80;99.90
27544;DHT22;17996;51.056;3.656;2022-11-20T08:52:17;7.90;99.90
27544;DHT22;17996;51.056;3.656;2022-11-20T08:54:43;7.90;99.90
27544;DHT22;17996;51.056;3.656;2022-11-20T08:57:09;7.90;99.90
27544;DHT22;17996;51.056;3.656;2022-11-20T08:59:34;7.90;99.90
27544;DHT22;17996;51.056;3.656;2022-11-20T09:02:01;7.90;99.90
27544;DHT22;17996;51.056;3.656;2022-11-20T09:04:27;7.90;99.90
27544;DHT22;17996;51.056;3.656;2022-11-20T09:06:52;7.90;99.90
27544;DHT22;17996;51.056;3.656;2022-11-20T09:09:18;8.00;99.90
27544;DHT22;17996;51.056;3.656;2022-11-20T09:11:44;8.10;99.90
27544;DHT22;17996;51.056;3.656;2022-11-20T09:14:12;8.10;99.90
27544;DHT22;17996;51.056;3.656;2022-11-20T09:16:38;8.20;99.90
27544;DHT22;17996;51.056;3.656;2022-11-20T09:19:05;8.40;99.90
27544;DHT22;17996;51.056;3.656;2022-11-20T09:21:31;8.20;99.90
27544;DHT22;17996;51.056;3.656;2022-11-20T09:23:56;8.30;99.90
27544;DHT22;17996;51.056;3.656;2022-11-20T09:26:22;8.50;99.90
27544;DHT22;17996;51.056;3.656;2022-11-20T09:28:47;8.60;99.90
27544;DHT22;17996;51.056;3.656;2022-11-20T09:31:24;8.50;99.90
27544;DHT22;17996;51.056;3.656;2022-11-20T09:33:50;8.60;99.90
27544;DHT22;17996;51.056;3.656;2022-11-20T09:36:17;8.50;99.90
27544;DHT22;17996;51.056;3.656;2022-11-20T09:38:47;8.70;99.90
27544;DHT22;17996;51.056;3.656;2022-11-20T09:41:54;8.60;99.90
27544;DHT22;17996;51.056;3.656;2022-11-20T09:53:11;8.90;99.90
27544;DHT22;17996;51.056;3.656;2022-11-20T09:55:37;9.00;99.90
27544;DHT22;17996;51.056;3.656;2022-11-20T09:58:06;9.10;99.90
27544;DHT22;17996;51.056;3.656;2022-11-20T10:00:34;9.20;99.90
27544;DHT22;17996;51.056;3.656;2022-11-20T10:06:11;9.20;99.90
27544;DHT22;17996;51.056;3.656;2022-11-20T10:20:30;9.50;99.90
27544;DHT22;17996;51.056;3.656;2022-11-20T10:25:37;9.60;99.90
27544;DHT22;17996;51.056;3.656;2022-11-20T10:28:24;9.60;99.90
27544;DHT22;17996;51.056;3.656;2022-11-20T10:31:06;9.70;99.90
27544;DHT22;17996;51.056;3.656;2022-11-20T10:33:42;9.70;99.90
27544;DHT22;17996;51.056;3.656;2022-11-20T10:36:19;9.80;99.90
27544;DHT22;17996;51.056;3.656;2022-11-20T10:39:17;9.80;99.90
27544;DHT22;17996;51.056;3.656;2022-11-20T10:41:46;9.80;99.90
27544;DHT22;17996;51.056;3.656;2022-11-20T10:44:20;9.80;99.90
27544;DHT22;17996;51.056;3.656;2022-11-20T10:47:15;9.90;99.90
27544;DHT22;17996;51.056;3.656;2022-11-20T10:49:51;9.90;99.90
27544;DHT22;17996;51.056;3.656;2022-11-20T10:55:03;10.00;99.90
27544;DHT22;17996;51.056;3.656;2022-11-20T11:00:24;10.10;99.90
27544;DHT22;17996;51.056;3.656;2022-11-20T11:02:50;10.10;99.90
27544;DHT22;17996;51.056;3.656;2022-11-20T11:05:41;10.10;99.90
27544;DHT22;17996;51.056;3.656;2022-11-20T11:08:14;10.00;99.90
27544;DHT22;17996;51.056;3.656;2022-11-20T11:13:24;10.10;99.90
27544;DHT22;17996;51.056;3.656;2022-11-20T11:15:51;10.00;99.90
27544;DHT22;17996;51.056;3.656;2022-11-20T11:18:30;10.00;99.90
27544;DHT22;17996;51.056;3.656;2022-11-20T11:20:59;10.10;99.90
27544;DHT22;17996;51.056;3.656;2022-11-20T11:23:34;10.00;99.90
27544;DHT22;17996;51.056;3.656;2022-11-20T11:26:04;10.10;99.90
27544;DHT22;17996;51.056;3.656;2022-11-20T11:28:30;10.10;99.90
27544;DHT22;17996;51.056;3.656;2022-11-20T11:30:56;10.00;99.90
27544;DHT22;17996;51.056;3.656;2022-11-20T11:33:26;10.20;99.90
27544;DHT22;17996;51.056;3.656;2022-11-20T11:35:54;10.00;99.90
27544;DHT22;17996;51.056;3.656;2022-11-20T11:38:38;10.00;99.90
27544;DHT22;17996;51.056;3.656;2022-11-20T11:41:06;10.00;99.90
27544;DHT22;17996;51.056;3.656;2022-11-20T11:43:34;9.90;99.90
27544;DHT22;17996;51.056;3.656;2022-11-20T11:46:32;9.80;99.90
27544;DHT22;17996;51.056;3.656;2022-11-20T11:49:09;9.70;99.90
27544;DHT22;17996;51.056;3.656;2022-11-20T11:54:43;9.50;99.90
27544;DHT22;17996;51.056;3.656;2022-11-20T12:00:02;9.50;99.90
27544;DHT22;17996;51.056;3.656;2022-11-20T12:08:03;9.50;99.90
27544;DHT22;17996;51.056;3.656;2022-11-20T12:13:24;9.40;99.90
27544;DHT22;17996;51.056;3.656;2022-11-20T12:15:51;9.50;99.90
27544;DHT22;17996;51.056;3.656;2022-11-20T12:18:20;9.40;99.90
27544;DHT22;17996;51.056;3.656;2022-11-20T12:21:17;9.40;99.90
27544;DHT22;17996;51.056;3.656;2022-11-20T12:29:43;9.40;99.90
27544;DHT22;17996;51.056;3.656;2022-11-20T12:51:57;9.20;99.90
27544;DHT22;17996;51.056;3.656;2022-11-20T12:54:34;9.40;99.90
27544;DHT22;17996;51.056;3.656;2022-11-20T12:57:16;9.30;99.90
27544;DHT22;17996;51.056;3.656;2022-11-20T13:02:30;9.30;99.90
27544;DHT22;17996;51.056;3.656;2022-11-20T13:05:17;9.30;99.90
27544;DHT22;17996;51.056;3.656;2022-11-20T13:07:44;9.30;99.90
27544;DHT22;17996;51.056;3.656;2022-11-20T13:10:19;9.30;99.90
27544;DHT22;17996;51.056;3.656;2022-11-20T13:12:57;9.40;99.90
27544;DHT22;17996;51.056;3.656;2022-11-20T13:15:39;9.40;99.90
27544;DHT22;17996;51.056;3.656;2022-11-20T13:18:09;9.40;99.90
27544;DHT22;17996;51.056;3.656;2022-11-20T13:20:36;9.30;99.90
27544;DHT22;17996;51.056;3.656;2022-11-20T13:23:06;9.40;99.90
27544;DHT22;17996;51.056;3.656;2022-11-20T13:25:38;9.40;99.90
27544;DHT22;17996;51.056;3.656;2022-11-20T13:28:28;9.40;99.90
27544;DHT22;17996;51.056;3.656;2022-11-20T13:30:56;9.40;99.90
27544;DHT22;17996;51.056;3.656;2022-11-20T13:33:32;9.40;99.90
27544;DHT22;17996;51.056;3.656;2022-11-20T13:36:03;9.40;99.90
27544;DHT22;17996;51.056;3.656;2022-11-20T13:38:44;9.40;99.90
27544;DHT22;17996;51.056;3.656;2022-11-20T13:41:11;9.40;99.90
27544;DHT22;17996;51.056;3.656;2022-11-20T13:43:57;9.40;99.90
27544;DHT22;17996;51.056;3.656;2022-11-20T13:46:23;9.40;99.90
27544;DHT22;17996;51.056;3.656;2022-11-20T13:49:10;9.40;99.90
27544;DHT22;17996;51.056;3.656;2022-11-20T13:51:46;9.40;99.90
27544;DHT22;17996;51.056;3.656;2022-11-20T13:54:41;9.60;99.90
27544;DHT22;17996;51.056;3.656;2022-11-20T13:58:03;9.40;99.90
27544;DHT22;17996;51.056;3.656;2022-11-20T14:00:31;9.40;99.90
27544;DHT22;17996;51.056;3.656;2022-11-20T14:05:36;9.50;99.90
27544;DHT22;17996;51.056;3.656;2022-11-20T14:08:09;9.60;99.90
27544;DHT22;17996;51.056;3.656;2022-11-20T14:10:37;9.80;99.90
27544;DHT22;17996;51.056;3.656;2022-11-20T14:13:19;10.00;99.90
27544;DHT22;17996;51.056;3.656;2022-11-20T14:15:45;10.00;99.90
27544;DHT22;17996;51.056;3.656;2022-11-20T14:18:18;10.10;99.90
27544;DHT22;17996;51.056;3.656;2022-11-20T14:20:45;10.10;99.90
27544;DHT22;17996;51.056;3.656;2022-11-20T14:23:10;10.10;99.90
27544;DHT22;17996;51.056;3.656;2022-11-20T14:25:37;10.10;99.90
27544;DHT22;17996;51.056;3.656;2022-11-20T14:28:11;10.30;99.90
27544;DHT22;17996;51.056;3.656;2022-11-20T14:30:46;10.30;99.90
27544;DHT22;17996;51.056;3.656;2022-11-20T14:33:13;10.30;99.90
27544;DHT22;17996;51.056;3.656;2022-11-20T14:35:47;10.40;99.90
27544;DHT22;17996;51.056;3.656;2022-11-20T14:38:17;10.40;99.90
27544;DHT22;17996;51.056;3.656;2022-11-20T14:40:44;10.30;99.90
27544;DHT22;17996;51.056;3.656;2022-11-20T14:45:54;10.30;99.90
27544;DHT22;17996;51.056;3.656;2022-11-20T14:48:28;10.20;99.90
27544;DHT22;17996;51.056;3.656;2022-11-20T14:50:55;10.10;99.90
27544;DHT22;17996;51.056;3.656;2022-11-20T14:53:24;10.20;99.90
27544;DHT22;17996;51.056;3.656;2022-11-20T14:55:58;9.90;99.90
27544;DHT22;17996;51.056;3.656;2022-11-20T14:58:30;9.80;99.90
27544;DHT22;17996;51.056;3.656;2022-11-20T15:01:00;9.80;99.90
27544;DHT22;17996;51.056;3.656;2022-11-20T15:03:33;9.90;99.90
27544;DHT22;17996;51.056;3.656;2022-11-20T15:05:59;9.80;99.90
27544;DHT22;17996;51.056;3.656;2022-11-20T15:08:25;9.80;99.90
27544;DHT22;17996;51.056;3.656;2022-11-20T15:10:51;9.80;99.90
27544;DHT22;17996;51.056;3.656;2022-11-20T15:13:31;9.80;99.90
27544;DHT22;17996;51.056;3.656;2022-11-20T15:15:59;9.90;99.90
27544;DHT22;17996;51.056;3.656;2022-11-20T15:18:36;10.00;99.90
27544;DHT22;17996;51.056;3.656;2022-11-20T15:21:06;9.80;99.90
27544;DHT22;17996;51.056;3.656;2022-11-20T15:23:35;9.80;99.90
27544;DHT22;17996;51.056;3.656;2022-11-20T15:26:00;9.70;99.90
27544;DHT22;17996;51.056;3.656;2022-11-20T15:28:30;9.80;99.90
27544;DHT22;17996;51.056;3.656;2022-11-20T15:30:56;9.60;99.90
27544;DHT22;17996;51.056;3.656;2022-11-20T15:33:22;9.50;99.90
27544;DHT22;17996;51.056;3.656;2022-11-20T15:35:48;9.80;99.90
27544;DHT22;17996;51.056;3.656;2022-11-20T15:38:13;9.50;99.90
27544;DHT22;17996;51.056;3.656;2022-11-20T15:40:39;9.70;99.90
27544;DHT22;17996;51.056;3.656;2022-11-20T15:43:05;9.50;99.90
27544;DHT22;17996;51.056;3.656;2022-11-20T15:45:47;9.50;99.90
27544;DHT22;17996;51.056;3.656;2022-11-20T15:48:21;9.50;99.90
27544;DHT22;17996;51.056;3.656;2022-11-20T15:50:55;9.50;99.90
27544;DHT22;17996;51.056;3.656;2022-11-20T15:53:22;9.50;99.90
27544;DHT22;17996;51.056;3.656;2022-11-20T15:55:47;9.40;99.90
27544;DHT22;17996;51.056;3.656;2022-11-20T15:58:13;9.40;99.90
27544;DHT22;17996;51.056;3.656;2022-11-20T16:00:39;9.60;99.90
27544;DHT22;17996;51.056;3.656;2022-11-20T16:03:05;9.40;99.90
27544;DHT22;17996;51.056;3.656;2022-11-20T16:05:30;9.60;99.90
27544;DHT22;17996;51.056;3.656;2022-11-20T16:07:56;9.60;99.90
27544;DHT22;17996;51.056;3.656;2022-11-20T16:10:23;9.70;99.90
27544;DHT22;17996;51.056;3.656;2022-11-20T16:12:49;9.60;99.90
27544;DHT22;17996;51.056;3.656;2022-11-20T16:15:33;9.50;99.90
27544;DHT22;17996;51.056;3.656;2022-11-20T16:18:13;9.60;99.90
27544;DHT22;17996;51.056;3.656;2022-11-20T16:20:39;9.60;99.90
27544;DHT22;17996;51.056;3.656;2022-11-20T16:23:05;9.70;99.90
27544;DHT22;17996;51.056;3.656;2022-11-20T16:25:31;9.60;99.90
27544;DHT22;17996;51.056;3.656;2022-11-20T16:27:57;9.40;99.90
27544;DHT22;17996;51.056;3.656;2022-11-20T16:30:23;9.40;99.90
27544;DHT22;17996;51.056;3.656;2022-11-20T16:32:49;9.40;99.90
27544;DHT22;17996;51.056;3.656;2022-11-20T16:35:14;9.50;99.90
27544;DHT22;17996;51.056;3.656;2022-11-20T16:37:40;9.60;99.90
27544;DHT22;17996;51.056;3.656;2022-11-20T16:40:07;9.50;99.90
27544;DHT22;17996;51.056;3.656;2022-11-20T16:42:34;9.50;99.90
27544;DHT22;17996;51.056;3.656;2022-11-20T16:44:59;9.50;99.90
27544;DHT22;17996;51.056;3.656;2022-11-20T16:47:25;9.60;99.90
27544;DHT22;17996;51.056;3.656;2022-11-20T16:49:50;9.60;99.90
27544;DHT22;17996;51.056;3.656;2022-11-20T16:52:16;9.40;99.90
27544;DHT22;17996;51.056;3.656;2022-11-20T16:54:41;9.30;99.90
27544;DHT22;17996;51.056;3.656;2022-11-20T16:57:07;9.30;99.90
27544;DHT22;17996;51.056;3.656;2022-11-20T16:59:33;9.40;99.90
27544;DHT22;17996;51.056;3.656;2022-11-20T17:01:58;9.20;99.90
27544;DHT22;17996;51.056;3.656;2022-11-20T17:04:24;9.30;99.90
27544;DHT22;17996;51.056;3.656;2022-11-20T17:06:49;9.20;99.90
27544;DHT22;17996;51.056;3.656;2022-11-20T17:09:15;9.20;99.90
27544;DHT22;17996;51.056;3.656;2022-11-20T17:11:41;9.30;99.90
27544;DHT22;17996;51.056;3.656;2022-11-20T17:14:07;9.20;99.90
27544;DHT22;17996;51.056;3.656;2022-11-20T17:16:35;9.20;99.90
27544;DHT22;17996;51.056;3.656;2022-11-20T17:19:01;9.20;99.90
27544;DHT22;17996;51.056;3.656;2022-11-20T17:21:27;9.30;99.90
27544;DHT22;17996;51.056;3.656;2022-11-20T17:23:54;9.20;99.90
27544;DHT22;17996;51.056;3.656;2022-11-20T17:26:22;9.10;99.90
27544;DHT22;17996;51.056;3.656;2022-11-20T17:28:56;9.20;99.90